createdAt,value
2022-12-13T12:05:18.759Z,-0.98
2022-12-13T12:05:49.527Z,-1.01
2022-12-13T12:06:22.168Z,-1.01
2022-12-13T12:06:52.926Z,-1.01
2022-12-13T12:07:48.328Z,-1.01
2022-12-13T12:08:31.328Z,-1.01
2022-12-13T12:08:43.751Z,-1.02
2022-12-13T12:09:01.538Z,-1.01
2022-12-13T12:09:32.327Z,-1.01
2022-12-13T12:10:03.125Z,-1.01
2022-12-13T12:10:33.905Z,-0.99
2022-12-13T12:11:04.677Z,-1.01
2022-12-13T12:11:35.457Z,-1.02
2022-12-13T12:12:06.222Z,-1.01
2022-12-13T12:12:36.976Z,-1.02
2022-12-13T12:13:07.718Z,-1.02
2022-12-13T12:13:51.603Z,-1.01
2022-12-13T12:14:11.087Z,-1.02
2022-12-13T12:14:41.827Z,-1.04
2022-12-13T12:15:15.567Z,-1.04
2022-12-13T12:15:44.192Z,-1.02
2022-12-13T12:16:15.040Z,-1.01
2022-12-13T12:16:45.812Z,-1.02
2022-12-13T12:17:16.570Z,-1.02
2022-12-13T12:17:47.316Z,-1.04
2022-12-13T12:18:18.078Z,-1.02
2022-12-13T12:18:48.839Z,-1.04
2022-12-13T12:19:19.622Z,-1.04
2022-12-13T12:19:50.532Z,-1.04
2022-12-13T12:20:23.362Z,-1.02
2022-12-13T12:20:51.936Z,-1.04
2022-12-13T12:21:23.106Z,-1.04
2022-12-13T12:22:26.849Z,-1.09
2022-12-13T12:22:57.754Z,-1.09
2022-12-13T12:23:28.674Z,-1.05
2022-12-13T12:23:59.510Z,-1.07
2022-12-13T12:24:30.390Z,-1.09
2022-12-13T12:25:01.214Z,-1.09
2022-12-13T12:25:32.192Z,-1.07
2022-12-13T12:26:03.279Z,-1.07
2022-12-13T12:26:34.170Z,-1.07
2022-12-13T12:27:05.022Z,-1.09
2022-12-13T12:27:35.971Z,-1.07
2022-12-13T12:28:06.848Z,-1.05
2022-12-13T12:28:44.326Z,-1.07
2022-12-13T12:29:12.248Z,-1.05
2022-12-13T12:29:43.285Z,-1.05
2022-12-13T12:30:14.117Z,-1.05
2022-12-13T12:30:46.884Z,-1.04
2022-12-13T12:31:17.857Z,-1.05
2022-12-13T12:31:50.860Z,-1.05
2022-12-13T12:32:19.324Z,-1.05
2022-12-13T12:32:50.212Z,-1.04
2022-12-13T12:33:20.953Z,-1.04
2022-12-13T12:33:51.734Z,-1.04
2022-12-13T12:34:27.166Z,-1.04
2022-12-13T12:34:55.214Z,-1.04
2022-12-13T12:35:26.032Z,-1.02
2022-12-13T12:35:57.019Z,-1.02
2022-12-13T12:36:27.877Z,-1.02
2022-12-13T12:36:58.671Z,-1.01
2022-12-13T12:37:30.737Z,-1.01
2022-12-13T12:38:01.548Z,-1.01
2022-12-13T12:38:32.383Z,-0.99
2022-12-13T12:39:03.181Z,-0.98
2022-12-13T12:39:33.971Z,-0.98
2022-12-13T12:40:04.772Z,-0.97
2022-12-13T12:41:07.254Z,-0.95
2022-12-13T12:41:15.985Z,-0.95
2022-12-13T12:41:45.257Z,-0.94
2022-12-13T12:42:13.535Z,-0.94
2022-12-13T12:43:13.288Z,-0.94
2022-12-13T12:43:18.184Z,-0.92
2022-12-13T12:43:49.082Z,-0.92
2022-12-13T12:44:19.996Z,-0.91
2022-12-13T12:44:50.780Z,-0.94
2022-12-13T12:45:54.487Z,-0.92
2022-12-13T12:45:56.808Z,-0.92
2022-12-13T12:46:25.393Z,-0.92
2022-12-13T12:47:18.210Z,-0.92
2022-12-13T12:47:57.597Z,-0.95
2022-12-13T12:49:00.511Z,-0.95
2022-12-13T12:49:07.129Z,-0.94
2022-12-13T12:49:38.368Z,-0.94
2022-12-13T12:50:09.151Z,-0.95
2022-12-13T12:50:42.900Z,-0.95
2022-12-13T12:51:10.894Z,-0.97
2022-12-13T12:51:41.699Z,-0.92
2022-12-13T12:52:12.485Z,-0.95
2022-12-13T12:52:43.289Z,-0.95
2022-12-13T12:53:14.099Z,-0.94
2022-12-13T12:53:45.025Z,-0.91
2022-12-13T12:54:15.795Z,-0.94
2022-12-13T12:54:46.642Z,-0.92
2022-12-13T12:55:17.468Z,-0.94
2022-12-13T12:55:48.235Z,-0.94
2022-12-13T12:56:19.006Z,-0.95
2022-12-13T12:56:49.814Z,-0.94
2022-12-13T12:57:20.677Z,-0.95
2022-12-13T12:57:51.458Z,-0.94
2022-12-13T12:58:22.555Z,-0.95
2022-12-13T12:58:53.603Z,-0.92
2022-12-13T12:59:24.463Z,-0.92
2022-12-13T12:59:59.795Z,-0.91
2022-12-13T13:00:27.925Z,-0.91
2022-12-13T13:00:58.698Z,-0.91
2022-12-13T13:01:33.441Z,-0.86
2022-12-13T13:02:02.299Z,-0.86
2022-12-13T13:02:33.131Z,-0.86
2022-12-13T13:03:09.498Z,-0.85
2022-12-13T13:03:36.906Z,-0.85
2022-12-13T13:04:07.737Z,-0.83
2022-12-13T13:04:38.712Z,-0.83
2022-12-13T13:05:09.521Z,-0.82
2022-12-13T13:05:40.322Z,-0.85
2022-12-13T13:06:11.077Z,-0.82
2022-12-13T13:06:41.870Z,-0.82
2022-12-13T13:07:23.582Z,-0.83
2022-12-13T13:07:51.463Z,-0.85
2022-12-13T13:08:17.997Z,-0.86
2022-12-13T13:08:54.966Z,-0.86
2022-12-13T13:09:24.603Z,-0.85
2022-12-13T13:09:54.858Z,-0.83
2022-12-13T13:10:26.688Z,-0.85
2022-12-13T13:10:54.919Z,-0.83
2022-12-13T13:11:27.530Z,-0.83
2022-12-13T13:11:58.306Z,-0.83
2022-12-13T13:12:30.832Z,-0.83
2022-12-13T13:13:32.976Z,-0.82
2022-12-13T13:13:34.840Z,-0.82
2022-12-13T13:14:06.070Z,-0.82
2022-12-13T13:14:36.822Z,-0.82
2022-12-13T13:15:07.577Z,-0.82
2022-12-13T13:15:38.357Z,-0.83
2022-12-13T13:16:09.198Z,-0.82
2022-12-13T13:16:39.970Z,-0.83
2022-12-13T13:17:10.726Z,-0.82
2022-12-13T13:17:41.510Z,-0.82
2022-12-13T13:18:12.329Z,-0.82
2022-12-13T13:18:43.090Z,-0.80
2022-12-13T13:19:13.859Z,-0.80
2022-12-13T13:19:44.620Z,-0.79
2022-12-13T13:20:15.486Z,-0.78
2022-12-13T13:20:46.318Z,-0.78
2022-12-13T13:21:17.080Z,-0.76
2022-12-13T13:21:47.864Z,-0.76
2022-12-13T13:22:30.325Z,-0.78
2022-12-13T13:23:10.316Z,-0.78
2022-12-13T13:23:38.984Z,-0.78
2022-12-13T13:23:56.583Z,-0.75
2022-12-13T13:24:27.352Z,-0.75
2022-12-13T13:24:58.150Z,-0.75
2022-12-13T13:25:28.893Z,-0.76
2022-12-13T13:26:23.511Z,-0.75
2022-12-13T13:26:36.189Z,-0.76
2022-12-13T13:27:04.178Z,-0.73
2022-12-13T13:27:34.961Z,-0.75
2022-12-13T13:28:05.709Z,-0.75
2022-12-13T13:28:36.481Z,-0.73
2022-12-13T13:29:07.240Z,-0.73
2022-12-13T13:29:37.990Z,-0.73
2022-12-13T13:30:10.593Z,-0.73
2022-12-13T13:30:41.350Z,-0.73
2022-12-13T13:31:12.131Z,-0.72
2022-12-13T13:31:42.940Z,-0.75
2022-12-13T13:32:28.282Z,-0.72
2022-12-13T13:32:46.301Z,-0.72
2022-12-13T13:33:17.040Z,-0.70
2022-12-13T13:33:47.804Z,-0.72
2022-12-13T13:34:18.571Z,-0.72
2022-12-13T13:34:49.310Z,-0.73
2022-12-13T13:35:20.090Z,-0.75
2022-12-13T13:35:50.833Z,-0.73
2022-12-13T13:36:29.322Z,-0.75
2022-12-13T13:36:54.169Z,-0.75
2022-12-13T13:37:24.923Z,-0.75
2022-12-13T13:37:55.686Z,-0.75
2022-12-13T13:38:26.420Z,-0.76
2022-12-13T13:39:01.366Z,-0.78
2022-12-13T13:39:29.594Z,-0.76
2022-12-13T13:40:00.331Z,-0.76
2022-12-13T13:40:31.799Z,-0.76
2022-12-13T13:41:02.643Z,-0.76
2022-12-13T13:41:33.392Z,-0.76
2022-12-13T13:42:04.160Z,-0.76
2022-12-13T13:42:34.894Z,-0.76
2022-12-13T13:43:05.661Z,-0.76
2022-12-13T13:43:36.775Z,-0.78
2022-12-13T13:44:07.630Z,-0.78
2022-12-13T13:44:38.376Z,-0.78
2022-12-13T13:45:09.124Z,-0.80
2022-12-13T13:45:43.387Z,-0.80
2022-12-13T13:46:11.182Z,-0.80
2022-12-13T13:46:42.035Z,-0.80
2022-12-13T13:47:12.802Z,-0.80
2022-12-13T13:47:43.551Z,-0.80
2022-12-13T13:48:15.036Z,-0.82
2022-12-13T13:48:45.887Z,-0.80
2022-12-13T13:49:16.657Z,-0.82
2022-12-13T13:49:47.584Z,-0.82
2022-12-13T13:50:18.366Z,-0.85
2022-12-13T13:50:49.112Z,-0.85
2022-12-13T13:51:19.863Z,-0.85
2022-12-13T13:52:23.730Z,-0.83
2022-12-13T13:52:25.671Z,-0.82
2022-12-13T13:52:54.050Z,-0.82
2022-12-13T13:53:25.088Z,-0.83
2022-12-13T13:53:56.087Z,-0.83
2022-12-13T13:54:26.845Z,-0.85
2022-12-13T13:54:57.595Z,-0.85
2022-12-13T13:55:28.373Z,-0.85
2022-12-13T13:56:02.012Z,-0.85
2022-12-13T13:56:30.116Z,-0.83
2022-12-13T13:57:00.852Z,-0.82
2022-12-13T13:58:07.662Z,-0.83
2022-12-13T13:58:11.732Z,-0.83
2022-12-13T13:58:36.815Z,-0.83
2022-12-13T13:59:07.582Z,-0.83
2022-12-13T13:59:38.345Z,-0.80
2022-12-13T14:00:09.168Z,-0.82
2022-12-13T14:00:39.915Z,-0.82
2022-12-13T14:01:10.655Z,-0.82
2022-12-13T14:01:41.500Z,-0.82
2022-12-13T14:02:12.376Z,-0.82
2022-12-13T14:02:43.256Z,-0.82
2022-12-13T14:03:22.361Z,-0.80
2022-12-13T14:03:46.648Z,-0.80
2022-12-13T14:04:17.434Z,-0.82
2022-12-13T14:04:48.187Z,-0.80
2022-12-13T14:05:18.937Z,-0.82
2022-12-13T14:05:49.686Z,-0.82
2022-12-13T14:06:20.450Z,-0.83
2022-12-13T14:06:51.214Z,-0.82
2022-12-13T14:07:26.616Z,-0.80
2022-12-13T14:07:54.560Z,-0.79
2022-12-13T14:08:25.287Z,-0.80
2022-12-13T14:08:56.045Z,-0.79
2022-12-13T14:09:26.808Z,-0.79
2022-12-13T14:09:57.553Z,-0.80
2022-12-13T14:10:28.349Z,-0.79
2022-12-13T14:10:59.088Z,-0.80
2022-12-13T14:11:29.835Z,-0.80
2022-12-13T14:12:00.586Z,-0.82
2022-12-13T14:12:31.498Z,-0.82
2022-12-13T14:13:02.287Z,-0.83
2022-12-13T14:13:33.044Z,-0.86
2022-12-13T14:14:03.802Z,-0.89
2022-12-13T14:14:38.742Z,-0.89
2022-12-13T14:15:06.707Z,-0.89
2022-12-13T14:15:37.450Z,-0.91
2022-12-13T14:16:08.243Z,-0.92
2022-12-13T14:16:40.824Z,-0.94
2022-12-13T14:17:11.577Z,-0.95
2022-12-13T14:17:42.318Z,-0.97
2022-12-13T14:18:13.065Z,-0.97
2022-12-13T14:18:46.124Z,-0.98
2022-12-13T14:19:16.936Z,-0.97
2022-12-13T14:19:50.702Z,-1.01
2022-12-13T14:20:20.403Z,-1.02
2022-12-13T14:20:51.167Z,-1.05
2022-12-13T14:21:21.940Z,-1.05
2022-12-13T14:21:52.712Z,-1.07
2022-12-13T14:22:23.477Z,-1.07
2022-12-13T14:22:54.390Z,-1.09
2022-12-13T14:23:25.675Z,-1.05
2022-12-13T14:23:56.618Z,-1.05
2022-12-13T14:24:28.036Z,-1.05
2022-12-13T14:24:59.182Z,-1.05
2022-12-13T14:25:30.180Z,-1.07
2022-12-13T14:26:01.593Z,-1.07
2022-12-13T14:26:32.482Z,-1.09
2022-12-13T14:27:03.538Z,-1.09
2022-12-13T14:27:35.088Z,-1.09
2022-12-13T14:28:06.260Z,-1.07
2022-12-13T14:28:37.514Z,-1.10
2022-12-13T14:29:08.440Z,-1.09
2022-12-13T14:29:40.968Z,-1.10
2022-12-13T14:30:27.624Z,-1.10
2022-12-13T14:30:47.877Z,-1.10
2022-12-13T14:31:21.827Z,-1.12
2022-12-13T14:31:50.286Z,-1.10
2022-12-13T14:32:26.043Z,-1.10
2022-12-13T14:32:53.836Z,-1.10
2022-12-13T14:33:25.290Z,-1.12
2022-12-13T14:33:56.360Z,-1.10
2022-12-13T14:34:27.476Z,-1.10
2022-12-13T14:34:58.469Z,-1.09
2022-12-13T14:35:29.403Z,-1.10
2022-12-13T14:36:00.258Z,-1.12
2022-12-13T14:36:31.149Z,-1.09
2022-12-13T14:37:02.022Z,-1.09
2022-12-13T14:37:33.096Z,-1.07
2022-12-13T14:38:04.447Z,-1.07
2022-12-13T14:38:35.543Z,-1.07
2022-12-13T14:39:06.539Z,-1.07
2022-12-13T14:39:39.780Z,-1.05
2022-12-13T14:40:10.994Z,-1.07
2022-12-13T14:40:42.176Z,-1.05
2022-12-13T14:41:13.030Z,-1.07
2022-12-13T14:41:43.976Z,-1.07
2022-12-13T14:42:14.773Z,-1.05
2022-12-13T14:42:48.159Z,-1.04
2022-12-13T14:43:23.952Z,-1.05
2022-12-13T14:43:50.336Z,-1.07
2022-12-13T14:44:21.219Z,-1.04
2022-12-13T14:44:52.077Z,-1.04
2022-12-13T14:45:22.900Z,-1.04
2022-12-13T14:45:57.694Z,-1.02
2022-12-13T14:46:26.200Z,-1.02
2022-12-13T14:46:57.271Z,-1.02
2022-12-13T14:47:28.329Z,-1.02
2022-12-13T14:47:59.163Z,-1.01
2022-12-13T14:48:29.966Z,-1.01
2022-12-13T14:49:03.773Z,-1.02
2022-12-13T14:49:33.431Z,-1.04
2022-12-13T14:50:04.234Z,-1.01
2022-12-13T14:50:34.995Z,-1.04
2022-12-13T14:51:05.771Z,-1.02
2022-12-13T14:51:36.544Z,-1.04
2022-12-13T14:52:07.417Z,-1.02
2022-12-13T14:52:38.196Z,-1.01
2022-12-13T14:53:08.960Z,-1.02
2022-12-13T14:53:39.772Z,-1.02
2022-12-13T14:54:10.532Z,-1.02
2022-12-13T14:54:41.313Z,-1.04
2022-12-13T14:55:12.076Z,-1.04
2022-12-13T14:55:42.854Z,-1.05
2022-12-13T14:56:28.828Z,-1.07
2022-12-13T14:56:46.491Z,-1.09
2022-12-13T14:57:17.240Z,-1.10
2022-12-13T14:59:40.500Z,-1.07
2022-12-13T15:00:10.330Z,-1.09
2022-12-13T15:00:41.248Z,-1.07
2022-12-13T15:01:12.064Z,-1.05
2022-12-13T15:01:42.870Z,-1.05
2022-12-13T15:02:13.783Z,-1.05
2022-12-13T15:02:44.557Z,-1.04
2022-12-13T15:03:17.111Z,-1.04
2022-12-13T15:03:47.950Z,-1.04
2022-12-13T15:04:18.755Z,-1.04
2022-12-13T15:04:49.540Z,-1.02
2022-12-13T15:05:29.209Z,-1.02
2022-12-13T15:05:52.919Z,-1.02
2022-12-13T15:06:23.717Z,-1.04
2022-12-13T15:06:54.778Z,-1.02
2022-12-13T15:07:25.776Z,-1.04
2022-12-13T15:07:56.598Z,-1.02
2022-12-13T15:08:27.441Z,-1.02
2022-12-13T15:08:58.359Z,-1.05
2022-12-13T15:09:29.563Z,-1.04
2022-12-13T15:10:00.738Z,-1.05
2022-12-13T15:10:31.515Z,-1.04
2022-12-13T15:11:08.041Z,-1.04
2022-12-13T15:11:34.956Z,-1.02
2022-12-13T15:12:15.300Z,-1.04
2022-12-13T15:12:38.405Z,-1.04
2022-12-13T15:13:09.236Z,-1.04
2022-12-13T15:13:39.990Z,-1.04
2022-12-13T15:14:13.032Z,-1.04
2022-12-13T15:14:40.903Z,-1.04
2022-12-13T15:15:11.700Z,-1.01
2022-12-13T15:15:42.450Z,-1.01
2022-12-13T15:16:13.308Z,-1.02
2022-12-13T15:16:44.221Z,-1.01
2022-12-13T15:17:15.030Z,-1.02
2022-12-13T15:17:45.806Z,-1.04
2022-12-13T15:18:16.564Z,-1.04
2022-12-13T15:18:50.660Z,-1.02
2022-12-13T15:19:29.552Z,-1.01
2022-12-13T15:19:51.352Z,-0.99
2022-12-13T15:20:22.226Z,-0.99
2022-12-13T15:20:53.016Z,-0.99
2022-12-13T15:21:23.759Z,-0.98
2022-12-13T15:21:58.625Z,-0.99
2022-12-13T15:22:29.455Z,-0.98
2022-12-13T15:22:57.777Z,-0.97
2022-12-13T15:23:28.951Z,-0.97
2022-12-13T15:23:59.950Z,-0.95
2022-12-13T15:24:30.716Z,-0.97
2022-12-13T15:25:01.504Z,-0.98
2022-12-13T15:25:32.334Z,-0.98
2022-12-13T15:26:03.112Z,-0.97
2022-12-13T15:26:34.014Z,-0.97
2022-12-13T15:27:05.748Z,-0.97
2022-12-13T15:27:36.561Z,-0.97
2022-12-13T15:28:07.421Z,-0.95
2022-12-13T15:28:38.244Z,-0.95
2022-12-13T15:29:09.811Z,-0.97
2022-12-13T15:29:41.396Z,-0.97
2022-12-13T15:30:12.197Z,-0.97
2022-12-13T15:30:42.985Z,-0.97
2022-12-13T15:31:13.816Z,-0.98
2022-12-13T15:31:48.965Z,-0.97
2022-12-13T15:32:17.074Z,-0.97
2022-12-13T15:32:47.936Z,-0.97
2022-12-13T15:33:18.755Z,-0.97
2022-12-13T15:33:49.675Z,-0.97
2022-12-13T15:34:29.191Z,-0.97
2022-12-13T15:34:53.221Z,-0.98
2022-12-13T15:35:24.108Z,-0.97
2022-12-13T15:35:54.896Z,-0.98
2022-12-13T15:36:25.695Z,-0.99
2022-12-13T15:36:56.462Z,-0.99
2022-12-13T15:37:28.229Z,-0.98
2022-12-13T15:37:57.601Z,-0.99
2022-12-13T15:38:29.486Z,-0.99
2022-12-13T15:39:00.378Z,-0.99
2022-12-13T15:39:31.285Z,-0.99
2022-12-13T15:40:02.139Z,-1.01
2022-12-13T15:40:32.939Z,-0.99
2022-12-13T15:41:03.706Z,-0.99
2022-12-13T15:41:34.527Z,-0.99
2022-12-13T15:42:05.297Z,-1.01
2022-12-13T15:42:36.050Z,-1.01
2022-12-13T15:43:06.909Z,-1.01
2022-12-13T15:43:37.698Z,-0.98
2022-12-13T15:44:08.448Z,-0.99
2022-12-13T15:44:39.191Z,-0.98
2022-12-13T15:45:09.935Z,-0.98
2022-12-13T15:45:40.756Z,-0.97
2022-12-13T15:46:11.657Z,-0.98
2022-12-13T15:46:42.491Z,-0.97
2022-12-13T15:47:13.290Z,-0.97
2022-12-13T15:47:45.914Z,-0.95
2022-12-13T15:48:16.681Z,-0.97
2022-12-13T15:48:48.648Z,-0.95
2022-12-13T15:49:19.689Z,-0.95
2022-12-13T15:49:50.468Z,-0.95
2022-12-13T15:50:21.231Z,-0.92
2022-12-13T15:50:51.999Z,-0.94
2022-12-13T15:51:29.671Z,-0.97
2022-12-13T15:51:55.403Z,-0.97
2022-12-13T15:52:26.167Z,-0.98
2022-12-13T15:52:56.950Z,-0.95
2022-12-13T15:53:28.469Z,-0.95
2022-12-13T15:53:59.710Z,-0.94
2022-12-13T15:54:31.599Z,-0.95
2022-12-13T15:55:02.344Z,-0.94
2022-12-13T15:55:33.125Z,-0.95
2022-12-13T15:56:09.616Z,-0.94
2022-12-13T15:56:36.514Z,-0.95
2022-12-13T15:57:07.357Z,-0.97
2022-12-13T15:57:38.166Z,-0.95
2022-12-13T15:58:08.933Z,-0.98
2022-12-13T15:58:39.797Z,-0.97
2022-12-13T15:59:10.732Z,-0.97
2022-12-13T15:59:41.581Z,-0.97
2022-12-13T16:00:12.731Z,-0.97
2022-12-13T16:00:43.580Z,-0.97
2022-12-13T16:01:14.411Z,-0.95
2022-12-13T16:01:45.172Z,-0.97
2022-12-13T16:02:17.592Z,-0.95
2022-12-13T16:02:48.430Z,-0.95
2022-12-13T16:03:19.280Z,-0.95
2022-12-13T16:03:50.107Z,-0.98
2022-12-13T16:04:21.004Z,-0.98
2022-12-13T16:04:51.883Z,-0.98
2022-12-13T16:05:22.698Z,-0.97
2022-12-13T16:05:53.489Z,-0.98
2022-12-13T16:06:24.267Z,-0.98
2022-12-13T16:06:55.089Z,-0.98
2022-12-13T16:07:25.851Z,-0.97
2022-12-13T16:07:56.945Z,-0.98
2022-12-13T16:08:27.710Z,-0.95
2022-12-13T16:08:58.464Z,-0.97
2022-12-13T16:09:29.288Z,-0.98
2022-12-13T16:10:00.019Z,-0.97
2022-12-13T16:10:30.774Z,-0.99
2022-12-13T16:11:01.562Z,-1.01
2022-12-13T16:11:32.330Z,-0.99
2022-12-13T16:12:03.061Z,-0.99
2022-12-13T16:12:33.841Z,-0.99
2022-12-13T16:13:08.031Z,-0.98
2022-12-13T16:13:36.439Z,-0.98
2022-12-13T16:14:07.987Z,-0.99
2022-12-13T16:14:39.465Z,-1.02
2022-12-13T16:15:10.203Z,-1.01
2022-12-13T16:15:41.004Z,-1.01
2022-12-13T16:16:13.645Z,-0.98
2022-12-13T16:16:46.306Z,-0.99
2022-12-13T16:17:17.097Z,-0.99
2022-12-13T16:17:47.864Z,-0.99
2022-12-13T16:18:18.605Z,-0.99
2022-12-13T16:18:49.368Z,-0.98
2022-12-13T16:19:20.314Z,-0.98
2022-12-13T16:19:51.310Z,-0.98
2022-12-13T16:20:22.268Z,-0.99
2022-12-13T16:20:53.276Z,-0.99
2022-12-13T16:21:24.095Z,-0.99
2022-12-13T16:21:54.964Z,-0.99
2022-12-13T16:22:25.873Z,-1.01
2022-12-13T16:23:00.096Z,-0.99
2022-12-13T16:23:29.617Z,-1.02
2022-12-13T16:24:00.515Z,-1.04
2022-12-13T16:24:31.295Z,-1.05
2022-12-13T16:25:02.064Z,-1.04
2022-12-13T16:25:32.824Z,-1.05
2022-12-13T16:26:08.681Z,-1.05
2022-12-13T16:26:36.255Z,-1.05
2022-12-13T16:27:08.666Z,-1.07
2022-12-13T16:27:39.887Z,-1.07
2022-12-13T16:28:10.751Z,-1.09
2022-12-13T16:28:43.335Z,-1.07
2022-12-13T16:29:14.212Z,-1.09
2022-12-13T16:29:45.128Z,-1.07
2022-12-13T16:30:15.921Z,-1.09
2022-12-13T16:30:46.706Z,-1.07
2022-12-13T16:31:18.928Z,-1.10
2022-12-13T16:31:49.764Z,-1.09
2022-12-13T16:32:20.566Z,-1.05
2022-12-13T16:33:27.649Z,-1.07
2022-12-13T16:33:55.502Z,-1.05
2022-12-13T16:34:26.495Z,-1.04
2022-12-13T16:34:57.261Z,-1.04
2022-12-13T16:35:28.026Z,-1.04
2022-12-13T16:35:58.835Z,-1.04
2022-12-13T16:36:29.623Z,-1.05
2022-12-13T16:37:00.437Z,-1.05
2022-12-13T16:37:31.204Z,-1.04
2022-12-13T16:38:09.078Z,-1.05
2022-12-13T16:38:34.588Z,-1.05
2022-12-13T16:39:05.397Z,-1.04
2022-12-13T16:39:36.180Z,-1.05
2022-12-13T16:40:06.921Z,-1.05
2022-12-13T16:40:37.707Z,-1.07
2022-12-13T16:41:09.410Z,-1.05
2022-12-13T16:41:40.606Z,-1.05
2022-12-13T16:42:11.392Z,-1.05
2022-12-13T16:42:42.176Z,-1.04
2022-12-13T16:43:12.944Z,-1.02
2022-12-13T16:43:43.717Z,-1.04
2022-12-13T16:44:14.539Z,-1.04
2022-12-13T16:44:45.424Z,-1.02
2022-12-13T16:45:41.170Z,-1.01
2022-12-13T16:45:48.841Z,-1.02
2022-12-13T16:47:16.134Z,-1.02
2022-12-13T16:47:18.004Z,-1.02
2022-12-13T16:47:38.918Z,-1.01
2022-12-13T16:47:57.601Z,-1.04
2022-12-13T16:48:29.067Z,-1.05
2022-12-13T16:49:00.455Z,-1.05
2022-12-13T16:49:31.216Z,-1.04
2022-12-13T16:50:02.063Z,-1.05
2022-12-13T16:50:32.919Z,-1.05
2022-12-13T16:51:03.776Z,-1.07
2022-12-13T16:51:34.650Z,-1.07
2022-12-13T16:52:05.500Z,-1.07
2022-12-13T16:52:36.317Z,-1.10
2022-12-13T16:53:07.192Z,-1.07
2022-12-13T16:53:38.082Z,-1.07
2022-12-13T16:54:08.908Z,-1.10
2022-12-13T16:54:39.794Z,-1.09
2022-12-13T16:55:10.678Z,-1.09
2022-12-13T16:55:41.540Z,-1.09
2022-12-13T16:56:12.343Z,-1.09
2022-12-13T16:56:43.298Z,-1.09
2022-12-13T16:57:14.082Z,-1.09
2022-12-13T16:57:44.873Z,-1.09
2022-12-13T16:58:15.777Z,-1.09
2022-12-13T16:58:50.051Z,-1.07
2022-12-13T16:59:18.328Z,-1.07
2022-12-13T16:59:49.107Z,-1.09
2022-12-13T17:00:19.908Z,-1.09
2022-12-13T17:00:50.750Z,-1.10
2022-12-13T17:01:23.428Z,-1.09
2022-12-13T17:01:54.268Z,-1.12
2022-12-13T17:02:25.161Z,-1.10
2022-12-13T17:02:56.061Z,-1.12
2022-12-13T17:03:27.457Z,-1.15
2022-12-13T17:03:58.688Z,-1.15
2022-12-13T17:04:29.518Z,-1.15
2022-12-13T17:05:00.300Z,-1.15
2022-12-13T17:05:31.064Z,-1.16
2022-12-13T17:06:01.866Z,-1.16
2022-12-13T17:06:32.659Z,-1.19
2022-12-13T17:07:03.418Z,-1.23
2022-12-13T17:07:34.212Z,-1.25
2022-12-13T17:08:04.968Z,-1.27
2022-12-13T17:08:35.748Z,-1.25
2022-12-13T17:09:06.577Z,-1.30
2022-12-13T17:09:37.357Z,-1.28
2022-12-13T17:10:08.248Z,-1.28
2022-12-13T17:10:39.195Z,-1.28
2022-12-13T17:11:16.191Z,-1.28
2022-12-13T17:11:43.222Z,-1.30
2022-12-13T17:12:14.097Z,-1.28
2022-12-13T17:12:44.908Z,-1.28
2022-12-13T17:13:16.050Z,-1.27
2022-12-13T17:13:46.910Z,-1.28
2022-12-13T17:14:17.717Z,-1.28
2022-12-13T17:14:48.514Z,-1.30
2022-12-13T17:15:19.321Z,-1.30
2022-12-13T17:15:59.425Z,-1.35
2022-12-13T17:16:22.964Z,-1.38
2022-12-13T17:16:53.841Z,-1.40
2022-12-13T17:17:24.701Z,-1.40
2022-12-13T17:17:55.583Z,-1.41
2022-12-13T17:18:26.664Z,-1.45
2022-12-13T17:18:57.471Z,-1.43
2022-12-13T17:19:28.281Z,-1.45
2022-12-13T17:19:59.168Z,-1.45
2022-12-13T17:20:30.157Z,-1.45
2022-12-13T17:21:01.151Z,-1.43
2022-12-13T17:21:32.009Z,-1.43
2022-12-13T17:22:02.826Z,-1.48
2022-12-13T17:22:33.615Z,-1.48
2022-12-13T17:23:04.417Z,-1.51
2022-12-13T17:23:35.208Z,-1.54
2022-12-13T17:24:05.988Z,-1.54
2022-12-13T17:24:36.776Z,-1.56
2022-12-13T17:25:07.680Z,-1.56
2022-12-13T17:25:38.490Z,-1.56
2022-12-13T17:26:09.331Z,-1.56
2022-12-13T17:26:40.636Z,-1.58
2022-12-13T17:27:11.402Z,-1.58
2022-12-13T17:27:42.248Z,-1.61
2022-12-13T17:28:13.026Z,-1.64
2022-12-13T17:28:43.791Z,-1.64
2022-12-13T17:29:17.860Z,-1.64
2022-12-13T17:29:45.859Z,-1.67
2022-12-13T17:30:16.639Z,-1.67
2022-12-13T17:30:47.441Z,-1.70
2022-12-13T17:31:20.086Z,-1.72
2022-12-13T17:31:50.915Z,-1.72
2022-12-13T17:32:21.688Z,-1.70
2022-12-13T17:32:52.434Z,-1.72
2022-12-13T17:33:23.626Z,-1.70
2022-12-13T17:33:54.674Z,-1.70
2022-12-13T17:34:26.972Z,-1.73
2022-12-13T17:34:57.737Z,-1.73
2022-12-13T17:35:28.503Z,-1.73
2022-12-13T17:35:59.263Z,-1.74
2022-12-13T17:36:30.036Z,-1.73
2022-12-13T17:37:03.283Z,-1.74
2022-12-13T17:37:33.414Z,-1.74
2022-12-13T17:38:04.174Z,-1.74
2022-12-13T17:38:34.953Z,-1.77
2022-12-13T17:39:12.709Z,-1.80
2022-12-13T17:39:37.561Z,-1.82
2022-12-13T17:40:08.401Z,-1.84
2022-12-13T17:40:39.214Z,-1.85
2022-12-13T17:41:10.163Z,-1.84
2022-12-13T17:41:41.188Z,-1.84
2022-12-13T17:42:12.515Z,-1.82
2022-12-13T17:42:43.336Z,-1.85
2022-12-13T17:43:24.119Z,-1.87
2022-12-13T17:43:46.988Z,-1.87
2022-12-13T17:44:17.823Z,-1.87
2022-12-13T17:44:48.681Z,-1.87
2022-12-13T17:45:19.484Z,-1.88
2022-12-13T17:45:50.492Z,-1.87
2022-12-13T17:46:21.433Z,-1.88
2022-12-13T17:46:54.402Z,-1.87
2022-12-13T17:47:23.151Z,-1.88
2022-12-13T17:47:54.005Z,-1.88
2022-12-13T17:48:25.160Z,-1.88
2022-12-13T17:48:56.196Z,-1.87
2022-12-13T17:49:27.316Z,-1.87
2022-12-13T17:49:58.294Z,-1.87
2022-12-13T17:50:29.151Z,-1.87
2022-12-13T17:51:00.049Z,-1.88
2022-12-13T17:51:31.087Z,-1.90
2022-12-13T17:52:02.562Z,-1.92
2022-12-13T17:52:33.518Z,-1.94
2022-12-13T17:53:04.543Z,-1.95
2022-12-13T17:53:35.682Z,-1.98
2022-12-13T17:54:06.483Z,-1.98
2022-12-13T17:54:37.317Z,-2.00
2022-12-13T17:55:11.160Z,-2.02
2022-12-13T17:55:41.061Z,-2.03
2022-12-13T17:56:12.099Z,-2.03
2022-12-13T17:56:43.430Z,-2.03
2022-12-13T17:57:14.357Z,-2.03
2022-12-13T17:57:45.250Z,-2.05
2022-12-13T17:58:16.129Z,-2.06
2022-12-13T17:58:47.063Z,-2.08
2022-12-13T17:59:18.409Z,-2.05
2022-12-13T17:59:49.322Z,-2.05
2022-12-13T18:00:20.294Z,-2.03
2022-12-13T18:00:51.082Z,-2.03
2022-12-13T18:01:22.067Z,-2.02
2022-12-13T18:01:53.090Z,-2.03
2022-12-13T18:02:24.042Z,-2.06
2022-12-13T18:02:55.972Z,-2.08
2022-12-13T18:03:27.800Z,-2.06
2022-12-13T18:03:59.139Z,-2.06
2022-12-13T18:04:30.076Z,-2.08
2022-12-13T18:05:01.036Z,-2.09
2022-12-13T18:05:32.008Z,-2.12
2022-12-13T18:06:03.008Z,-2.13
2022-12-13T18:06:33.899Z,-2.12
2022-12-13T18:07:04.857Z,-2.12
2022-12-13T18:07:35.670Z,-2.12
2022-12-13T18:08:06.558Z,-2.13
2022-12-13T18:08:37.475Z,-2.10
2022-12-13T18:09:08.826Z,-2.13
2022-12-13T18:09:39.645Z,-2.13
2022-12-13T18:10:10.609Z,-2.13
2022-12-13T18:10:41.516Z,-2.13
2022-12-13T18:11:45.574Z,-2.13
2022-12-13T18:12:16.657Z,-2.15
2022-12-13T18:12:47.469Z,-2.15
2022-12-13T18:13:18.254Z,-2.15
2022-12-13T18:13:49.048Z,-2.15
2022-12-13T18:14:21.870Z,-2.18
2022-12-13T18:14:52.796Z,-2.20
2022-12-13T18:15:23.614Z,-2.20
2022-12-13T18:15:54.527Z,-2.20
2022-12-13T18:16:30.370Z,-2.18
2022-12-13T18:16:58.860Z,-2.20
2022-12-13T18:18:08.901Z,-2.16
2022-12-13T18:18:11.245Z,-2.20
2022-12-13T18:18:35.263Z,-2.20
2022-12-13T18:19:06.203Z,-2.21
2022-12-13T18:19:37.138Z,-2.23
2022-12-13T18:20:08.005Z,-2.21
2022-12-13T18:20:38.977Z,-2.23
2022-12-13T18:21:09.993Z,-2.24
2022-12-13T18:21:40.898Z,-2.26
2022-12-13T18:22:11.743Z,-2.24
2022-12-13T18:22:45.832Z,-2.26
2022-12-13T18:23:15.501Z,-2.26
2022-12-13T18:23:46.312Z,-2.29
2022-12-13T18:24:19.106Z,-2.29
2022-12-13T18:24:50.140Z,-2.29
2022-12-13T18:25:21.028Z,-2.30
2022-12-13T18:25:51.948Z,-2.32
2022-12-13T18:26:22.906Z,-2.34
2022-12-13T18:26:53.682Z,-2.35
2022-12-13T18:27:24.460Z,-2.32
2022-12-13T18:28:00.617Z,-2.34
2022-12-13T18:28:27.868Z,-2.34
2022-12-13T18:28:58.639Z,-2.34
2022-12-13T18:29:29.424Z,-2.34
2022-12-13T18:30:00.200Z,-2.35
2022-12-13T18:30:32.171Z,-2.37
2022-12-13T18:31:02.959Z,-2.35
2022-12-13T18:31:48.758Z,-2.35
2022-12-13T18:32:04.511Z,-2.35
2022-12-13T18:32:35.687Z,-2.37
2022-12-13T18:33:06.478Z,-2.39
2022-12-13T18:33:42.107Z,-2.37
2022-12-13T18:34:08.452Z,-2.37
2022-12-13T18:34:39.684Z,-2.37
2022-12-13T18:35:10.624Z,-2.35
2022-12-13T18:35:41.755Z,-2.37
2022-12-13T18:36:12.705Z,-2.42
2022-12-13T18:36:43.601Z,-2.45
2022-12-13T18:37:14.778Z,-2.45
2022-12-13T18:37:46.404Z,-2.43
2022-12-13T18:38:17.258Z,-2.46
2022-12-13T18:38:49.024Z,-2.46
2022-12-13T18:39:20.180Z,-2.50
2022-12-13T18:39:55.145Z,-2.49
2022-12-13T18:40:23.696Z,-2.50
2022-12-13T18:40:55.120Z,-2.50
2022-12-13T18:41:25.960Z,-2.53
2022-12-13T18:41:57.029Z,-2.53
2022-12-13T18:42:28.330Z,-2.52
2022-12-13T18:42:59.246Z,-2.52
2022-12-13T18:43:30.343Z,-2.53
2022-12-13T18:44:01.242Z,-2.52
2022-12-13T18:44:32.147Z,-2.52
2022-12-13T18:45:03.049Z,-2.53
2022-12-13T18:45:34.537Z,-2.53
2022-12-13T18:46:05.773Z,-2.53
2022-12-13T18:46:36.772Z,-2.53
2022-12-13T18:47:07.678Z,-2.53
2022-12-13T18:47:38.625Z,-2.56
2022-12-13T18:48:09.490Z,-2.60
2022-12-13T18:48:40.730Z,-2.58
2022-12-13T18:49:11.545Z,-2.58
2022-12-13T18:49:42.635Z,-2.58